createdAt,value
2017-09-25T00:02:06.674Z,99.90
2017-09-25T00:04:33.095Z,99.90
2017-09-25T00:06:59.555Z,99.90
2017-09-25T00:09:26.739Z,99.90
2017-09-25T00:11:53.198Z,99.90
2017-09-25T00:14:19.643Z,99.90
2017-09-25T00:16:46.179Z,99.90
2017-09-25T00:19:12.755Z,99.90
2017-09-25T00:21:39.198Z,99.90
2017-09-25T00:24:05.606Z,99.90
2017-09-25T00:26:32.831Z,99.90
2017-09-25T00:28:59.262Z,99.90
2017-09-25T00:31:25.738Z,99.90
2017-09-25T00:33:52.151Z,99.90
2017-09-25T00:36:19.331Z,99.90
2017-09-25T00:38:45.827Z,99.90
2017-09-25T00:41:12.304Z,99.90
2017-09-25T00:43:38.832Z,99.90
2017-09-25T00:46:05.968Z,99.90
2017-09-25T00:48:32.653Z,99.90
2017-09-25T00:50:59.154Z,99.90
2017-09-25T00:56:20.486Z,99.90
2017-09-25T00:58:46.947Z,99.90
2017-09-25T01:01:13.358Z,99.90
2017-09-25T01:03:52.071Z,99.90
2017-09-25T01:06:25.574Z,99.90
2017-09-25T01:08:52.155Z,99.90
2017-09-25T01:11:18.712Z,99.90
2017-09-25T01:13:45.896Z,99.90
2017-09-25T01:16:12.370Z,99.90
2017-09-25T01:18:38.818Z,99.90
2017-09-25T01:21:05.982Z,99.90
2017-09-25T01:23:33.196Z,99.90
2017-09-25T01:25:59.647Z,99.90
2017-09-25T01:28:26.108Z,99.90
2017-09-25T01:30:52.635Z,99.90
2017-09-25T01:33:19.819Z,99.90
2017-09-25T01:35:46.419Z,99.90
2017-09-25T01:38:13.586Z,99.90
2017-09-25T01:40:40.219Z,99.90
2017-09-25T01:43:06.648Z,99.90
2017-09-25T01:45:33.091Z,99.90
2017-09-25T01:47:59.579Z,99.90
2017-09-25T01:50:26.079Z,99.90
2017-09-25T01:52:52.564Z,99.90
2017-09-25T01:55:19.733Z,99.90
2017-09-25T01:57:46.203Z,99.90
2017-09-25T02:00:12.638Z,99.90
2017-09-25T02:02:39.047Z,99.90
2017-09-25T02:05:05.512Z,99.90
2017-09-25T02:07:31.976Z,99.90
2017-09-25T02:09:58.548Z,99.90
2017-09-25T02:12:24.976Z,99.90
2017-09-25T02:14:51.420Z,99.90
2017-09-25T02:17:17.883Z,99.90
2017-09-25T02:19:44.355Z,99.90
2017-09-25T02:22:11.547Z,99.90
2017-09-25T02:24:38.131Z,99.90
2017-09-25T02:27:05.318Z,99.90
2017-09-25T02:29:31.775Z,99.90
2017-09-25T02:31:58.218Z,99.90
2017-09-25T02:34:24.679Z,99.90
2017-09-25T02:36:51.863Z,99.90
2017-09-25T02:39:18.343Z,99.90
2017-09-25T02:41:44.791Z,99.90
2017-09-25T02:44:11.199Z,99.90
2017-09-25T02:46:37.653Z,99.90
2017-09-25T02:49:04.134Z,99.90
2017-09-25T02:51:30.591Z,99.90
2017-09-25T02:53:57.039Z,99.90
2017-09-25T02:56:23.447Z,99.90
2017-09-25T02:58:49.927Z,99.90
2017-09-25T03:01:17.094Z,99.90
2017-09-25T03:03:44.343Z,99.90
2017-09-25T03:06:11.516Z,99.90
2017-09-25T03:08:38.113Z,99.90
2017-09-25T03:11:04.652Z,99.90
2017-09-25T03:13:31.818Z,99.90
2017-09-25T03:15:59.010Z,99.90
2017-09-25T03:18:25.463Z,99.90
2017-09-25T03:20:51.946Z,99.90
2017-09-25T03:23:18.387Z,99.90
2017-09-25T03:25:44.826Z,99.90
2017-09-25T03:28:11.293Z,99.90
2017-09-25T03:30:37.719Z,99.90
2017-09-25T03:33:04.175Z,99.90
2017-09-25T03:35:30.764Z,99.90
2017-09-25T03:37:57.239Z,99.90
2017-09-25T03:40:24.452Z,99.90
2017-09-25T03:42:50.882Z,99.90
2017-09-25T03:45:17.339Z,99.90
2017-09-25T03:47:43.813Z,99.90
2017-09-25T03:50:10.971Z,99.90
2017-09-25T03:52:38.324Z,99.90
2017-09-25T03:55:05.511Z,99.90
2017-09-25T03:57:32.071Z,99.90
2017-09-25T03:59:58.502Z,99.90
2017-09-25T04:02:24.939Z,99.90
2017-09-25T04:04:51.362Z,99.90
2017-09-25T04:07:17.906Z,99.90
2017-09-25T04:09:44.376Z,99.90
2017-09-25T04:12:11.600Z,99.90
2017-09-25T04:14:38.041Z,99.90
2017-09-25T04:17:05.242Z,99.90
2017-09-25T04:19:31.686Z,99.90
2017-09-25T04:21:58.205Z,99.90
2017-09-25T04:24:24.619Z,99.90
2017-09-25T04:26:51.083Z,99.90
2017-09-25T04:29:17.583Z,99.90
2017-09-25T04:31:44.042Z,99.90
2017-09-25T04:34:10.651Z,99.90
2017-09-25T04:36:37.110Z,99.90
2017-09-25T04:39:03.548Z,99.90
2017-09-25T04:41:30.101Z,99.90
2017-09-25T04:43:56.562Z,99.90
2017-09-25T04:46:23.209Z,99.90
2017-09-25T04:48:49.699Z,99.90
2017-09-25T04:51:16.140Z,99.90
2017-09-25T04:53:42.793Z,99.90
2017-09-25T04:56:09.196Z,99.90
2017-09-25T04:58:35.636Z,99.90
2017-09-25T05:01:02.068Z,99.90
2017-09-25T05:03:28.523Z,99.90
2017-09-25T05:05:55.011Z,99.90
2017-09-25T05:08:21.450Z,99.90
2017-09-25T05:10:47.903Z,99.90
2017-09-25T05:13:14.337Z,99.90
2017-09-25T05:15:40.821Z,99.90
2017-09-25T05:18:07.272Z,99.90
2017-09-25T05:20:33.707Z,99.90
2017-09-25T05:23:00.222Z,99.90
2017-09-25T05:25:26.651Z,99.90
2017-09-25T05:27:53.116Z,99.90
2017-09-25T05:30:19.559Z,99.90
2017-09-25T05:32:45.995Z,99.90
2017-09-25T05:35:12.617Z,99.90
2017-09-25T05:37:39.065Z,99.90
2017-09-25T05:40:05.495Z,99.90
2017-09-25T05:42:32.111Z,99.90
2017-09-25T05:44:58.644Z,99.90
2017-09-25T05:47:25.094Z,99.90
2017-09-25T05:49:51.565Z,99.90
2017-09-25T05:52:18.030Z,99.90
2017-09-25T05:54:44.474Z,99.90
2017-09-25T05:57:10.930Z,99.90
2017-09-25T05:59:37.344Z,99.90
2017-09-25T06:02:03.771Z,99.90
2017-09-25T06:04:30.271Z,99.90
2017-09-25T06:06:57.465Z,99.90
2017-09-25T06:09:23.920Z,99.90
2017-09-25T06:11:50.370Z,99.90
2017-09-25T06:14:16.811Z,99.90
2017-09-25T06:16:43.223Z,99.90
2017-09-25T06:19:09.730Z,99.90
2017-09-25T06:21:36.134Z,99.90
2017-09-25T06:24:03.294Z,99.90
2017-09-25T06:26:29.759Z,99.90
2017-09-25T06:28:56.178Z,99.90
2017-09-25T06:31:22.623Z,99.90
2017-09-25T06:33:49.033Z,99.90
2017-09-25T06:36:15.527Z,99.90
2017-09-25T06:38:41.966Z,99.90
2017-09-25T06:41:08.437Z,99.90
2017-09-25T06:43:34.884Z,99.90
2017-09-25T06:46:01.297Z,99.90
2017-09-25T06:48:27.878Z,99.90
2017-09-25T06:50:54.379Z,99.90
2017-09-25T06:53:20.836Z,99.90
2017-09-25T06:55:47.314Z,99.90
2017-09-25T06:58:14.607Z,99.90
2017-09-25T07:00:41.059Z,99.90
2017-09-25T07:03:07.490Z,99.90
2017-09-25T07:05:33.967Z,99.90
2017-09-25T07:08:01.147Z,99.90
2017-09-25T07:10:27.604Z,99.90
2017-09-25T07:12:54.059Z,99.90
2017-09-25T07:15:20.499Z,99.90
2017-09-25T07:17:47.004Z,99.90
2017-09-25T07:20:13.440Z,99.90
2017-09-25T07:22:40.145Z,99.90
2017-09-25T07:25:06.586Z,99.90
2017-09-25T07:27:33.027Z,98.00
2017-09-25T07:29:59.470Z,97.30
2017-09-25T07:32:25.889Z,96.70
2017-09-25T07:34:52.311Z,96.00
2017-09-25T07:37:18.757Z,95.00
2017-09-25T07:39:45.190Z,96.00
2017-09-25T07:42:11.626Z,96.10
2017-09-25T07:44:38.157Z,98.50
2017-09-25T07:47:04.635Z,98.10
2017-09-25T07:49:31.071Z,98.70
2017-09-25T07:51:57.531Z,99.80
2017-09-25T07:54:23.988Z,99.40
2017-09-25T07:56:50.480Z,99.80
2017-09-25T07:59:17.680Z,99.90
2017-09-25T08:01:44.094Z,99.90
2017-09-25T08:04:10.535Z,99.90
2017-09-25T08:06:37.882Z,99.90
2017-09-25T08:09:04.467Z,99.90
2017-09-25T08:11:30.922Z,99.90
2017-09-25T08:13:58.119Z,99.50
2017-09-25T08:16:24.672Z,99.50
2017-09-25T08:18:51.166Z,98.00
2017-09-25T08:21:17.644Z,98.50
2017-09-25T08:23:44.192Z,99.90
2017-09-25T08:26:10.787Z,97.90
2017-09-25T08:28:37.243Z,98.20
2017-09-25T08:31:03.671Z,99.90
2017-09-25T08:33:30.320Z,99.90
2017-09-25T08:35:56.750Z,99.90
2017-09-25T08:38:23.203Z,99.90
2017-09-25T08:40:49.625Z,99.90
2017-09-25T08:43:16.091Z,99.90
2017-09-25T08:45:42.520Z,99.90
2017-09-25T08:48:09.688Z,99.90
2017-09-25T08:50:36.275Z,99.90
2017-09-25T08:53:02.714Z,99.90
2017-09-25T08:55:29.173Z,99.90
2017-09-25T08:57:56.363Z,99.90
2017-09-25T09:00:22.811Z,99.90
2017-09-25T09:02:49.264Z,99.90
2017-09-25T09:05:15.738Z,99.90
2017-09-25T09:07:42.327Z,99.90
2017-09-25T09:10:08.779Z,99.90
2017-09-25T09:12:36.048Z,99.90
2017-09-25T09:15:02.500Z,99.90
2017-09-25T09:17:29.097Z,99.90
2017-09-25T09:19:56.314Z,99.90
2017-09-25T09:22:22.804Z,99.90
2017-09-25T09:24:49.218Z,99.90
2017-09-25T09:27:16.432Z,99.90
2017-09-25T09:29:42.898Z,99.90
2017-09-25T09:32:10.104Z,99.90
2017-09-25T09:34:36.583Z,99.90
2017-09-25T09:37:03.771Z,99.90
2017-09-25T09:39:30.252Z,99.90
2017-09-25T09:41:56.698Z,99.90
2017-09-25T09:44:23.863Z,99.90
2017-09-25T09:46:51.074Z,99.90
2017-09-25T09:49:17.538Z,99.90
2017-09-25T09:51:44.802Z,99.90
2017-09-25T09:54:12.006Z,99.90
2017-09-25T09:56:38.498Z,99.90
2017-09-25T09:59:04.907Z,99.90
2017-09-25T10:01:32.118Z,99.90
2017-09-25T10:03:58.639Z,99.90
2017-09-25T10:06:25.122Z,99.90
2017-09-25T10:08:52.287Z,99.90
2017-09-25T10:11:19.442Z,99.90
2017-09-25T10:13:45.950Z,99.90
2017-09-25T10:16:12.483Z,99.90
2017-09-25T10:18:38.950Z,99.90
2017-09-25T10:21:05.387Z,99.90
2017-09-25T10:23:31.844Z,99.90
2017-09-25T10:25:58.450Z,99.90
2017-09-25T10:28:24.931Z,99.90
2017-09-25T10:33:40.579Z,99.90
2017-09-25T10:36:07.019Z,99.90
2017-09-25T10:38:33.486Z,99.90
2017-09-25T10:40:59.951Z,99.90
2017-09-25T10:43:26.395Z,99.90
2017-09-25T10:45:53.603Z,99.90
2017-09-25T10:48:20.062Z,99.90
2017-09-25T10:50:46.521Z,99.90
2017-09-25T10:53:13.724Z,99.90
2017-09-25T10:55:40.187Z,99.90
2017-09-25T10:58:07.358Z,99.90
2017-09-25T11:00:34.575Z,99.90
2017-09-25T11:03:01.003Z,99.90
2017-09-25T11:05:27.467Z,99.90
2017-09-25T11:07:54.648Z,99.90
2017-09-25T11:10:21.127Z,99.90
2017-09-25T11:12:47.541Z,99.90
2017-09-25T11:15:14.000Z,99.90
2017-09-25T11:17:41.195Z,99.90
2017-09-25T11:20:07.634Z,99.90
2017-09-25T11:22:34.057Z,99.90
2017-09-25T11:25:00.651Z,99.90
2017-09-25T11:27:27.112Z,99.90
2017-09-25T11:29:53.535Z,99.90
2017-09-25T11:32:20.839Z,99.90
2017-09-25T11:34:47.287Z,99.90
2017-09-25T11:37:13.723Z,99.90
2017-09-25T11:39:40.235Z,99.90
2017-09-25T11:42:06.684Z,99.90
2017-09-25T11:44:33.091Z,99.90
2017-09-25T11:46:59.549Z,99.90
2017-09-25T11:49:26.008Z,99.90
2017-09-25T11:51:53.248Z,99.90
2017-09-25T11:54:19.686Z,99.90
2017-09-25T11:56:46.131Z,99.90
2017-09-25T11:59:13.302Z,99.90
2017-09-25T12:01:39.901Z,99.90
2017-09-25T12:04:06.367Z,99.90
2017-09-25T12:06:32.843Z,99.90
2017-09-25T12:08:59.285Z,99.90
2017-09-25T12:11:25.753Z,99.90
2017-09-25T12:13:52.949Z,99.90
2017-09-25T12:16:19.397Z,99.90
2017-09-25T12:18:45.871Z,99.90
2017-09-25T12:21:13.067Z,99.90
2017-09-25T12:23:39.495Z,99.90
2017-09-25T12:26:05.995Z,99.90
2017-09-25T12:28:33.179Z,99.90
2017-09-25T12:30:59.611Z,99.90
2017-09-25T12:33:26.054Z,99.90
2017-09-25T12:35:52.531Z,99.90
2017-09-25T12:38:19.716Z,99.90
2017-09-25T12:40:46.212Z,99.90
2017-09-25T12:43:13.412Z,99.90
2017-09-25T12:45:40.070Z,99.90
2017-09-25T12:48:06.586Z,99.90
2017-09-25T12:50:33.027Z,99.90
2017-09-25T12:52:59.450Z,99.90
2017-09-25T12:55:25.931Z,99.90
2017-09-25T12:57:53.112Z,99.50
2017-09-25T13:00:19.573Z,99.40
2017-09-25T13:02:45.993Z,98.50
2017-09-25T13:05:12.482Z,91.10
2017-09-25T13:07:39.656Z,91.00
2017-09-25T13:10:06.118Z,91.10
2017-09-25T13:12:32.552Z,91.40
2017-09-25T13:14:59.031Z,90.00
2017-09-25T13:17:26.284Z,85.00
2017-09-25T13:19:53.466Z,81.90
2017-09-25T13:22:19.929Z,81.80
2017-09-25T13:24:46.347Z,83.00
2017-09-25T13:27:12.763Z,90.10
2017-09-25T13:29:39.219Z,90.40
2017-09-25T13:32:05.687Z,84.50
2017-09-25T13:34:32.115Z,78.90
2017-09-25T13:36:58.601Z,84.50
2017-09-25T13:39:25.071Z,87.00
2017-09-25T13:41:51.543Z,91.40
2017-09-25T13:44:18.714Z,89.30
2017-09-25T13:46:45.168Z,89.10
2017-09-25T13:49:11.662Z,89.40
2017-09-25T13:51:38.852Z,81.90
2017-09-25T13:54:05.271Z,81.80
2017-09-25T13:56:31.752Z,83.30
2017-09-25T14:04:02.581Z,92.50
2017-09-25T14:06:29.018Z,94.40
2017-09-25T14:08:55.467Z,96.60
2017-09-25T14:11:21.935Z,95.50
2017-09-25T14:13:49.154Z,99.90
2017-09-25T14:16:15.582Z,99.90
2017-09-25T14:18:42.046Z,99.90
2017-09-25T14:22:02.898Z,99.90
2017-09-25T14:24:29.432Z,99.90
2017-09-25T14:26:55.864Z,99.90
2017-09-25T14:29:22.403Z,99.90
2017-09-25T14:31:48.856Z,99.90
2017-09-25T14:34:15.327Z,99.90
2017-09-25T14:36:42.595Z,99.90
2017-09-25T14:39:09.042Z,99.90
2017-09-25T14:41:35.483Z,99.90
2017-09-25T14:44:01.937Z,99.90
2017-09-25T14:46:28.601Z,99.90
2017-09-25T14:48:55.057Z,99.90
2017-09-25T14:51:22.231Z,96.70
2017-09-25T14:53:48.706Z,96.70
2017-09-25T14:56:15.178Z,95.40
2017-09-25T14:58:41.896Z,96.60
2017-09-25T15:01:08.492Z,95.10
2017-09-25T15:03:35.022Z,94.00
2017-09-25T15:06:01.455Z,94.10
2017-09-25T15:08:27.937Z,93.70
2017-09-25T15:10:55.099Z,94.20
2017-09-25T15:13:22.299Z,94.90
2017-09-25T15:15:48.762Z,94.90
2017-09-25T15:18:15.212Z,95.50
2017-09-25T15:20:42.463Z,97.00
2017-09-25T15:23:09.665Z,97.30
2017-09-25T15:25:36.191Z,97.30
2017-09-25T15:28:02.691Z,97.50
2017-09-25T15:30:29.853Z,95.10
2017-09-25T15:32:56.300Z,95.00
2017-09-25T15:35:22.755Z,95.80
2017-09-25T15:37:49.203Z,95.90
2017-09-25T15:40:15.631Z,96.80
2017-09-25T15:42:42.068Z,97.30
2017-09-25T15:45:08.518Z,99.90
2017-09-25T15:47:35.020Z,99.90
2017-09-25T15:50:01.467Z,99.90
2017-09-25T15:52:28.073Z,99.90
2017-09-25T15:54:54.547Z,99.90
2017-09-25T15:57:21.027Z,99.90
2017-09-25T15:59:47.483Z,99.90
2017-09-25T16:02:13.934Z,99.90
2017-09-25T16:04:40.438Z,99.90
2017-09-25T16:07:06.948Z,99.90
2017-09-25T16:09:33.417Z,99.90
2017-09-25T16:11:59.856Z,99.90
2017-09-25T16:14:26.282Z,99.90
2017-09-25T16:16:52.745Z,99.90
2017-09-25T16:19:19.247Z,99.90
2017-09-25T16:21:45.699Z,99.90
2017-09-25T16:24:12.231Z,99.90
2017-09-25T16:26:38.654Z,99.90
2017-09-25T16:29:05.111Z,99.90
2017-09-25T16:31:31.554Z,99.90
2017-09-25T16:33:58.231Z,99.90
2017-09-25T16:36:24.718Z,99.90
2017-09-25T16:38:52.717Z,99.90
2017-09-25T16:41:19.963Z,99.90
2017-09-25T16:43:47.151Z,99.90
2017-09-25T16:46:13.627Z,99.90
2017-09-25T16:48:40.130Z,99.90
2017-09-25T16:51:06.640Z,99.90
2017-09-25T16:53:33.062Z,99.90
2017-09-25T16:55:59.562Z,99.90
2017-09-25T16:58:27.527Z,99.90
2017-09-25T17:00:54.315Z,99.90
2017-09-25T17:03:20.801Z,99.90
2017-09-25T17:05:47.248Z,99.90
2017-09-25T17:08:14.536Z,99.90
2017-09-25T17:10:40.989Z,99.90
2017-09-25T17:13:07.466Z,99.90
2017-09-25T17:15:34.787Z,99.90
2017-09-25T17:18:01.322Z,99.90
2017-09-25T17:20:28.711Z,99.90
2017-09-25T17:22:55.453Z,99.90
2017-09-25T17:25:22.086Z,99.90
2017-09-25T17:27:48.963Z,99.90
2017-09-25T17:30:15.912Z,99.90
2017-09-25T17:32:42.749Z,99.90
2017-09-25T17:35:09.595Z,99.90
2017-09-25T17:37:36.639Z,99.90
2017-09-25T17:42:53.059Z,99.90
2017-09-25T17:45:20.311Z,99.90
2017-09-25T17:47:46.807Z,99.90
2017-09-25T17:50:14.076Z,99.90
2017-09-25T17:52:40.616Z,99.90
2017-09-25T17:55:07.269Z,99.90
2017-09-25T17:57:33.740Z,99.90
2017-09-25T18:00:00.324Z,99.90
2017-09-25T18:02:26.854Z,99.90
2017-09-25T18:04:53.353Z,99.90
2017-09-25T18:07:19.775Z,99.90
2017-09-25T18:09:46.423Z,99.90
2017-09-25T18:12:13.016Z,99.90
2017-09-25T18:14:39.507Z,99.90
2017-09-25T18:17:05.985Z,99.90
2017-09-25T18:19:32.741Z,99.90
2017-09-25T18:21:59.205Z,99.90
2017-09-25T18:24:25.820Z,99.90
2017-09-25T18:26:52.313Z,99.90
2017-09-25T18:29:18.847Z,99.90
2017-09-25T18:31:45.441Z,99.90
2017-09-25T18:34:11.905Z,99.90
2017-09-25T18:36:39.102Z,99.90
2017-09-25T18:39:05.599Z,99.90
2017-09-25T18:41:32.195Z,99.90
2017-09-25T18:43:59.661Z,99.90
2017-09-25T18:46:26.895Z,99.90
2017-09-25T18:48:53.367Z,99.90
2017-09-25T18:51:20.661Z,99.90
2017-09-25T18:53:47.130Z,99.90
2017-09-25T18:56:14.431Z,99.90
2017-09-25T18:58:40.905Z,99.90
2017-09-25T19:01:07.394Z,99.90
2017-09-25T19:03:33.854Z,99.90
2017-09-25T19:06:00.371Z,99.90
2017-09-25T19:08:26.852Z,99.90
2017-09-25T19:10:53.327Z,99.90
2017-09-25T19:13:19.870Z,99.90
2017-09-25T19:15:46.383Z,99.90
2017-09-25T19:18:12.913Z,99.90
2017-09-25T19:20:40.105Z,99.90
2017-09-25T19:23:06.537Z,99.90
2017-09-25T19:25:33.085Z,99.90
2017-09-25T19:27:59.522Z,99.90
2017-09-25T19:30:25.994Z,99.90
2017-09-25T19:32:53.202Z,99.90
2017-09-25T19:35:19.699Z,99.90
2017-09-25T19:37:46.162Z,99.90
2017-09-25T19:40:12.660Z,99.90
2017-09-25T19:42:39.178Z,99.90
2017-09-25T19:45:06.419Z,99.90
2017-09-25T19:47:34.464Z,99.90
2017-09-25T19:50:02.770Z,99.90
2017-09-25T19:52:29.995Z,99.90
2017-09-25T19:54:56.518Z,99.90
2017-09-25T20:00:21.300Z,99.90
2017-09-25T20:02:47.781Z,99.90
2017-09-25T20:05:14.309Z,99.90
2017-09-25T20:07:40.853Z,99.90
2017-09-25T20:10:07.324Z,99.90
2017-09-25T20:12:33.813Z,99.90
2017-09-25T20:15:02.332Z,99.90
2017-09-25T20:17:49.478Z,99.90
2017-09-25T20:20:15.962Z,99.90
2017-09-25T20:22:42.443Z,99.90
2017-09-25T20:25:08.905Z,99.90
2017-09-25T20:27:35.392Z,99.90
2017-09-25T20:30:01.865Z,99.90
2017-09-25T20:32:28.486Z,99.90
2017-09-25T20:34:54.927Z,99.90
2017-09-25T20:37:21.361Z,99.90
2017-09-25T20:39:47.836Z,99.90
2017-09-25T20:42:14.288Z,99.90
2017-09-25T20:44:41.504Z,99.90
2017-09-25T20:47:07.967Z,99.90
2017-09-25T20:49:35.220Z,99.90
2017-09-25T20:52:02.429Z,99.90
2017-09-25T20:54:28.922Z,99.90
2017-09-25T20:56:55.379Z,99.90
2017-09-25T20:59:21.819Z,99.90
2017-09-25T21:01:48.359Z,99.90
2017-09-25T21:04:15.044Z,99.90
2017-09-25T21:06:42.271Z,99.90
2017-09-25T21:09:08.740Z,99.90
2017-09-25T21:11:35.220Z,99.90
2017-09-25T21:14:01.683Z,99.90
2017-09-25T21:16:29.004Z,99.90
2017-09-25T21:18:55.467Z,99.90
2017-09-25T21:21:21.968Z,99.90
2017-09-25T21:23:48.481Z,99.90
2017-09-25T21:29:13.273Z,99.90
2017-09-25T21:31:39.757Z,99.90
2017-09-25T21:34:06.236Z,99.90
2017-09-25T21:36:37.034Z,99.90
2017-09-25T21:39:03.557Z,99.90
2017-09-25T21:41:30.000Z,99.90
2017-09-25T21:43:56.490Z,99.90
2017-09-25T21:46:22.961Z,99.90
2017-09-25T21:48:49.446Z,99.90
2017-09-25T21:51:15.910Z,99.90
2017-09-25T21:53:42.363Z,99.90
2017-09-25T21:56:09.102Z,99.90
2017-09-25T21:58:35.539Z,99.90
2017-09-25T22:01:02.034Z,99.90
2017-09-25T22:03:28.659Z,99.90
2017-09-25T22:05:55.130Z,99.90
2017-09-25T22:08:21.598Z,99.90
2017-09-25T22:10:48.047Z,99.90
2017-09-25T22:13:15.258Z,99.90
2017-09-25T22:15:41.708Z,99.90
2017-09-25T22:18:08.274Z,99.90
2017-09-25T22:20:34.786Z,99.90
2017-09-25T22:23:01.248Z,99.90
2017-09-25T22:25:27.738Z,99.90
2017-09-25T22:27:54.191Z,99.90
2017-09-25T22:30:21.387Z,99.90
2017-09-25T22:32:47.867Z,99.90
2017-09-25T22:35:14.327Z,99.90
2017-09-25T22:37:40.811Z,99.90
2017-09-25T22:40:07.262Z,99.90
2017-09-25T22:42:35.571Z,99.90
2017-09-25T22:45:02.018Z,99.90
2017-09-25T22:47:28.487Z,99.90
2017-09-25T22:49:54.991Z,99.90
2017-09-25T22:52:21.468Z,99.90
2017-09-25T22:54:47.959Z,99.90
2017-09-25T22:57:14.611Z,99.90
2017-09-25T22:59:41.124Z,99.90
2017-09-25T23:02:07.570Z,99.90
2017-09-25T23:04:40.150Z,99.90
2017-09-25T23:07:06.644Z,99.90
2017-09-25T23:09:36.814Z,99.90
2017-09-25T23:12:03.234Z,99.90
2017-09-25T23:14:33.564Z,99.90
2017-09-25T23:17:00.002Z,99.90
2017-09-25T23:19:26.431Z,99.90
2017-09-25T23:21:52.895Z,99.90
2017-09-25T23:24:19.327Z,99.90
2017-09-25T23:26:45.810Z,99.90
2017-09-25T23:29:12.255Z,99.90
2017-09-25T23:31:40.663Z,99.90
2017-09-25T23:34:07.908Z,99.90
2017-09-25T23:36:34.334Z,99.90
2017-09-25T23:39:00.822Z,99.90
2017-09-25T23:41:28.016Z,99.90
2017-09-25T23:43:54.509Z,99.90
2017-09-25T23:46:20.967Z,99.90
2017-09-25T23:48:47.488Z,99.90
2017-09-25T23:51:13.924Z,99.90
2017-09-25T23:53:40.363Z,99.90
2017-09-25T23:56:06.811Z,99.90
2017-09-25T23:58:33.275Z,99.90
